首页
METAR-TAF:

METAR-TAF

机场 :

朱諾, 阿拉斯加州, 美国

纬度: 58-21-17N, 经度: 134-34-34W, 海拔: 6米

当前天气观测

该预报发布于1小时和8分钟前的00:53 UTC
风速10节,风向
温度 10°C
湿度 76%
气压 1012 hPa
能見度: 16.1公里
少量云层高于4500英尺
少量云层高于9500英尺
阴天层高于15000英尺

METAR: PAJN 220053Z 09010KT 10SM FEW045 FEW095 OVC150 10/06 A2989 RMK AO2 SLP121 T01000056 $

时间: 18:01 (02:01 UTC)

预报

该预报发布于2小时和35分钟前的23:26 UTC
预报有效从22日的 00点(UTC)到 22日的 24点(UTC)
风速10节,风向东转东南
能見度: 10公里
少量云层高于4000英尺
多云层高于8000英尺
阴天层高于12000英尺
从 22日的 1200点(UTC)
风速10节,风向
能見度: 10公里
阴天层高于5000英尺
小雨
从 22日的 1800点(UTC)
风速8节,风向东转东南
能見度: 8.0公里
多云层高于700英尺
多云层高于2500英尺
阴天层高于4000英尺
雨, 轻雾

TAF: PAJN 212326Z 2200/2224 11010KT P6SM FEW040 BKN080 OVC120 FM221200 10010KT P6SM -RA OVC050 FM221800 11008KT 5SM RA BR BKN007 BKN025 OVC040

超过4000个机场的气象观测和天气预报(METAR&TAF报告)。

可查询的气象台以黄色和红色小点在地图上表示。

将鼠标移到小点上方,可查看气象台名称。

然后点击查看天气观测和预报。

如需切换地图:点击带黑十字的绿色按钮放大地图;点击带横线的绿色按钮缩小地图;或者点击绿色箭头查看邻近地区的地图。


METAR-TAF: